Oakland, Florida
Current Conditions -  °F | °C
As of 6:53 PM on Wednesday 28 Jan 2015 (Local Time) from KORL Reporting Station
Clear Clear  
Wind Chill: 52°   Ceiling: Unl
Heat Index: 52°   Visibility: 10mi
Dew Point: 39°   Wind: 10mph
Humidity: 61%   Direction: 50°NE
Pressure: 30.25"   Gusts: NA
Location:  28.55°N, 81.63°W
Report Text: KORL 282353Z 05009KT 10SM CLR 11/04 A3025 RMK AO2 SLP248 T01110039 10167 20111 53019
Loading
Personal Weather Stations






























Interactive Weather Map New forecast layout! Learn more

10-Day Weather Forecast

Advertisements
Track Severe Weather on mobile